createdAt,value
2017-03-28T00:00:47.955Z,44.6
2017-03-28T00:01:47.667Z,44.6
2017-03-28T00:02:48.010Z,44.42
2017-03-28T00:03:48.045Z,44.22
2017-03-28T00:04:47.755Z,44.42
2017-03-28T00:05:48.100Z,44.51
2017-03-28T00:06:47.808Z,44.6
2017-03-28T00:07:47.842Z,44.32
2017-03-28T00:08:48.178Z,44.51
2017-03-28T00:09:48.207Z,44.32
2017-03-28T00:10:48.235Z,44.22
2017-03-28T00:11:48.271Z,44.03
2017-03-28T00:12:47.985Z,43.84
2017-03-28T00:13:48.344Z,43.84
2017-03-28T00:14:48.351Z,43.74
2017-03-28T00:15:48.384Z,44.42
2017-03-28T00:16:48.403Z,44.42
2017-03-28T00:17:48.431Z,44.6
2017-03-28T00:18:48.469Z,44.32
2017-03-28T00:19:48.489Z,44.32
2017-03-28T00:20:48.518Z,44.22
2017-03-28T00:21:48.547Z,44.51
2017-03-28T00:22:48.573Z,43.84
2017-03-28T00:23:48.601Z,43.93
2017-03-28T00:24:48.626Z,43.93
2017-03-28T00:25:48.663Z,43.84
2017-03-28T00:26:48.683Z,43.64
2017-03-28T00:27:48.720Z,44.12
2017-03-28T00:28:48.736Z,43.93
2017-03-28T00:29:48.766Z,44.42
2017-03-28T00:30:48.796Z,44.03
2017-03-28T00:31:48.823Z,43.74
2017-03-28T00:32:48.853Z,43.74
2017-03-28T00:33:48.873Z,43.93
2017-03-28T00:34:48.594Z,43.84
2017-03-28T00:35:48.939Z,43.45
2017-03-28T00:36:48.966Z,43.84
2017-03-28T00:37:48.994Z,43.84
2017-03-28T00:38:48.704Z,43.84
2017-03-28T00:39:49.046Z,43.84
2017-03-28T00:40:48.774Z,43.45
2017-03-28T00:41:49.102Z,43.84
2017-03-28T00:42:49.132Z,43.84
2017-03-28T00:43:49.162Z,43.93
2017-03-28T00:44:49.193Z,44.32
2017-03-28T00:45:49.210Z,43.84
2017-03-28T00:46:49.239Z,43.64
2017-03-28T00:47:48.962Z,43.64
2017-03-28T00:48:49.309Z,43.81
2017-03-28T00:49:49.324Z,43.91
2017-03-28T00:50:49.041Z,43.72
2017-03-28T00:51:49.383Z,43.81
2017-03-28T00:52:49.412Z,43.91
2017-03-28T00:53:49.434Z,43.72
2017-03-28T00:54:49.467Z,43.74
2017-03-28T00:55:49.498Z,43.64
2017-03-28T00:56:49.523Z,43.45
2017-03-28T00:57:49.237Z,43.91
2017-03-28T00:58:49.579Z,43.93
2017-03-28T00:59:49.606Z,43.16
2017-03-28T01:00:49.633Z,42.94
2017-03-28T01:01:49.663Z,43.45
2017-03-28T01:02:49.382Z,43.52
2017-03-28T01:03:49.401Z,43.33
2017-03-28T01:04:49.749Z,43.24
2017-03-28T01:05:49.458Z,43.04
2017-03-28T01:06:49.799Z,42.94
2017-03-28T01:07:49.828Z,43.35
2017-03-28T01:08:49.860Z,43.43
2017-03-28T01:09:49.885Z,43.43
2017-03-28T01:10:49.602Z,43.14
2017-03-28T01:11:49.939Z,43.14
2017-03-28T01:12:49.973Z,43.04
2017-03-28T01:13:49.937Z,43.43
2017-03-28T01:14:50.024Z,43.33
2017-03-28T01:15:50.050Z,42.66
2017-03-28T01:16:50.090Z,43.52
2017-03-28T01:17:50.107Z,43.04
2017-03-28T01:18:50.392Z,43.04
2017-03-28T01:19:50.161Z,42.94
2017-03-28T01:20:49.878Z,43.14
2017-03-28T01:21:49.906Z,42.94
2017-03-28T01:22:50.246Z,43.14
2017-03-28T01:23:50.212Z,43.33
2017-03-28T01:24:50.301Z,43.33
2017-03-28T01:25:50.329Z,42.94
2017-03-28T01:26:50.046Z,43.33
2017-03-28T01:27:50.384Z,43.04
2017-03-28T01:28:50.664Z,42.75
2017-03-28T01:29:50.442Z,43.04
2017-03-28T01:30:50.473Z,43.04
2017-03-28T01:31:50.177Z,43.14
2017-03-28T01:32:50.211Z,43.04
2017-03-28T01:33:50.803Z,43.33
2017-03-28T01:34:50.581Z,42.85
2017-03-28T01:35:50.609Z,43.04
2017-03-28T01:36:50.634Z,42.75
2017-03-28T01:37:50.659Z,43.04
2017-03-28T01:38:50.942Z,42.66
2017-03-28T01:39:50.724Z,43.33
2017-03-28T01:40:50.748Z,43.04
2017-03-28T01:41:50.773Z,43.04
2017-03-28T01:42:50.798Z,43.24
2017-03-28T01:43:51.083Z,42.66
2017-03-28T01:44:50.856Z,42.85
2017-03-28T01:45:50.572Z,43.52
2017-03-28T01:46:50.907Z,42.75
2017-03-28T01:47:50.627Z,42.75
2017-03-28T01:48:50.907Z,43.62
2017-03-28T01:49:50.999Z,42.75
2017-03-28T01:50:51.020Z,42.66
2017-03-28T01:51:50.737Z,42.66
2017-03-28T01:52:51.075Z,43.04
2017-03-28T01:53:51.361Z,43.04
2017-03-28T01:54:51.136Z,42.75
2017-03-28T01:55:50.849Z,43.14
2017-03-28T01:56:51.198Z,42.66
2017-03-28T01:57:51.214Z,43.04
2017-03-28T01:58:51.242Z,43.14
2017-03-28T01:59:51.271Z,42.85
2017-03-28T02:00:51.297Z,43.52
2017-03-28T02:01:51.324Z,42.66
2017-03-28T02:02:51.041Z,42.75
2017-03-28T02:03:51.394Z,43.52
2017-03-28T02:04:51.408Z,42.75
2017-03-28T02:05:51.120Z,42.94
2017-03-28T02:06:51.464Z,43.04
2017-03-28T02:07:51.177Z,42.85
2017-03-28T02:08:51.206Z,43.33
2017-03-28T02:09:51.547Z,43.14
2017-03-28T02:10:51.268Z,42.75
2017-03-28T02:11:51.605Z,43.24
2017-03-28T02:12:51.321Z,43.43
2017-03-28T02:13:51.667Z,42.94
2017-03-28T02:14:51.693Z,43.62
2017-03-28T02:15:51.713Z,43.33
2017-03-28T02:16:51.744Z,43.24
2017-03-28T02:17:51.765Z,42.66
2017-03-28T02:18:51.806Z,42.85
2017-03-28T02:19:51.515Z,43.24
2017-03-28T02:20:51.856Z,42.94
2017-03-28T02:21:51.564Z,43.24
2017-03-28T02:22:51.907Z,43.52
2017-03-28T02:23:51.936Z,43.14
2017-03-28T02:24:51.959Z,43.21
2017-03-28T02:25:51.676Z,43.33
2017-03-28T02:26:51.702Z,42.66
2017-03-28T02:27:52.054Z,43.04
2017-03-28T02:28:52.074Z,43.43
2017-03-28T02:29:52.098Z,43.41
2017-03-28T02:30:52.127Z,43.24
2017-03-28T02:31:51.840Z,43.14
2017-03-28T02:32:52.180Z,43.24
2017-03-28T02:33:52.213Z,43.12
2017-03-28T02:34:52.234Z,43.43
2017-03-28T02:35:51.950Z,43.5
2017-03-28T02:36:52.293Z,43.14
2017-03-28T02:37:52.321Z,43.43
2017-03-28T02:38:52.346Z,43.52
2017-03-28T02:39:52.375Z,43.04
2017-03-28T02:40:52.399Z,43.5
2017-03-28T02:41:52.424Z,43.21
2017-03-28T02:42:52.456Z,43.21
2017-03-28T02:43:52.166Z,43.12
2017-03-28T02:44:52.510Z,43.21
2017-03-28T02:45:52.534Z,43.5
2017-03-28T02:46:52.568Z,43.5
2017-03-28T02:47:52.280Z,43.21
2017-03-28T02:48:52.313Z,43.21
2017-03-28T02:49:52.339Z,43.31
2017-03-28T02:50:52.362Z,43.5
2017-03-28T02:51:52.702Z,43.41
2017-03-28T02:52:52.417Z,43.31
2017-03-28T02:53:52.757Z,43.21
2017-03-28T02:54:52.788Z,43.5
2017-03-28T02:55:52.814Z,43.5
2017-03-28T02:56:52.842Z,43.41
2017-03-28T02:57:52.552Z,43.12
2017-03-28T02:58:52.586Z,43.5
2017-03-28T02:59:52.923Z,43.21
2017-03-28T03:00:52.954Z,43.31
2017-03-28T03:01:52.670Z,43.5
2017-03-28T03:02:53.008Z,43.5
2017-03-28T03:03:53.036Z,43.12
2017-03-28T03:04:53.062Z,43.31
2017-03-28T03:05:53.091Z,43.31
2017-03-28T03:06:53.115Z,42.83
2017-03-28T03:07:53.144Z,43.41
2017-03-28T03:08:53.180Z,43.02
2017-03-28T03:09:53.199Z,43.6
2017-03-28T03:10:52.906Z,43.12
2017-03-28T03:11:52.939Z,43.21
2017-03-28T03:12:53.283Z,43.21
2017-03-28T03:13:53.336Z,43.02
2017-03-28T03:14:53.338Z,42.63
2017-03-28T03:15:53.052Z,43.12
2017-03-28T03:16:53.390Z,43.41
2017-03-28T03:17:53.423Z,43.12
2017-03-28T03:18:53.133Z,42.93
2017-03-28T03:19:53.484Z,42.63
2017-03-28T03:20:53.504Z,42.73
2017-03-28T03:21:53.530Z,43.5
2017-03-28T03:22:53.557Z,42.63
2017-03-28T03:23:53.572Z,43.02
2017-03-28T03:24:53.609Z,42.93
2017-03-28T03:25:53.634Z,43.02
2017-03-28T03:26:53.351Z,43.5
2017-03-28T03:27:53.696Z,43.21
2017-03-28T03:28:53.716Z,43.31
2017-03-28T03:29:53.749Z,43.6
2017-03-28T03:30:53.773Z,42.63
2017-03-28T03:31:53.806Z,42.93
2017-03-28T03:32:53.519Z,42.83
2017-03-28T03:33:53.540Z,43.21
2017-03-28T03:34:53.579Z,43.02
2017-03-28T03:35:53.594Z,43.21
2017-03-28T03:36:53.937Z,43.21
2017-03-28T03:37:53.968Z,43.02
2017-03-28T03:38:53.679Z,43.41
2017-03-28T03:39:54.020Z,43.41
2017-03-28T03:40:54.052Z,43.31
2017-03-28T03:41:53.766Z,43.41
2017-03-28T03:42:54.103Z,43.21
2017-03-28T03:43:53.818Z,43.31
2017-03-28T03:44:54.152Z,43.31
2017-03-28T03:45:54.186Z,42.54
2017-03-28T03:46:54.205Z,42.63
2017-03-28T03:47:54.237Z,42.52
2017-03-28T03:48:54.271Z,42.73
2017-03-28T03:49:53.979Z,42.73
2017-03-28T03:50:54.328Z,42.73
2017-03-28T03:51:54.349Z,42.73
2017-03-28T03:52:54.375Z,42.63
2017-03-28T03:53:54.400Z,42.61
2017-03-28T03:54:54.440Z,42.63
2017-03-28T03:55:54.456Z,42.32
2017-03-28T03:56:54.485Z,42.73
2017-03-28T03:57:54.509Z,42.54
2017-03-28T03:58:54.538Z,42.73
2017-03-28T03:59:54.567Z,42.61
2017-03-28T04:00:54.596Z,42.61
2017-03-28T04:01:54.620Z,42.61
2017-03-28T04:02:54.650Z,42.52
2017-03-28T04:03:54.362Z,42.35
2017-03-28T04:04:54.708Z,42.25
2017-03-28T04:05:54.731Z,42.42
2017-03-28T04:06:54.764Z,42.61
2017-03-28T04:07:54.477Z,42.23
2017-03-28T04:08:54.809Z,42.42
2017-03-28T04:09:54.839Z,42.52
2017-03-28T04:10:54.547Z,42.23
2017-03-28T04:11:54.893Z,42.03
2017-03-28T04:12:54.609Z,42.52
2017-03-28T04:13:54.954Z,42.23
2017-03-28T04:14:54.663Z,42.42
2017-03-28T04:15:55.002Z,42.23
2017-03-28T04:16:55.031Z,42.32
2017-03-28T04:17:55.057Z,42.13
2017-03-28T04:18:55.086Z,42.42
2017-03-28T04:19:55.106Z,42.42
2017-03-28T04:20:54.826Z,42.52
2017-03-28T04:21:55.168Z,42.42
2017-03-28T04:22:55.196Z,42.23
2017-03-28T04:23:55.220Z,42.23
2017-03-28T04:24:55.246Z,42.23
2017-03-28T04:25:55.274Z,42.32
2017-03-28T04:26:55.307Z,42.23
2017-03-28T04:27:55.336Z,42.23
2017-03-28T04:28:55.362Z,42.42
2017-03-28T04:29:55.373Z,42.42
2017-03-28T04:30:55.098Z,42.42
2017-03-28T04:31:55.131Z,42.13
2017-03-28T04:32:55.463Z,42.32
2017-03-28T04:33:55.492Z,42.23
2017-03-28T04:34:55.518Z,42.13
2017-03-28T04:35:55.546Z,42.32
2017-03-28T04:36:55.576Z,42.13
2017-03-28T04:37:55.613Z,42.23
2017-03-28T04:38:55.633Z,42.32
2017-03-28T04:39:55.666Z,42.23
2017-03-28T04:40:55.677Z,42.35
2017-03-28T04:41:55.720Z,42.35
2017-03-28T04:42:55.739Z,42.35
2017-03-28T04:43:55.765Z,42.25
2017-03-28T04:44:55.476Z,42.35
2017-03-28T04:45:55.505Z,42.35
2017-03-28T04:46:55.846Z,42.35
2017-03-28T04:47:55.875Z,42.35
2017-03-28T04:48:55.601Z,42.44
2017-03-28T04:49:55.926Z,41.77
2017-03-28T04:50:55.948Z,41.86
2017-03-28T04:51:55.662Z,42.15
2017-03-28T04:52:56.011Z,41.77
2017-03-28T04:53:56.035Z,41.86
2017-03-28T04:54:55.752Z,41.67
2017-03-28T04:55:56.088Z,42.05
2017-03-28T04:56:56.119Z,41.96
2017-03-28T04:57:56.147Z,41.96
2017-03-28T04:58:55.861Z,42.15
2017-03-28T04:59:56.460Z,42.15
2017-03-28T05:00:55.916Z,42.05
2017-03-28T05:01:56.254Z,42.05
2017-03-28T05:02:56.286Z,42.05
2017-03-28T05:03:56.308Z,41.77
2017-03-28T05:04:56.591Z,41.96
2017-03-28T05:05:56.364Z,41.77
2017-03-28T05:06:56.079Z,41.48
2017-03-28T05:07:56.419Z,41.67
2017-03-28T05:08:56.443Z,41.4
2017-03-28T05:09:56.727Z,41.38
2017-03-28T05:10:56.492Z,41.5
2017-03-28T05:11:56.526Z,41.11
2017-03-28T05:12:56.555Z,41.2
2017-03-28T05:13:56.276Z,41.11
2017-03-28T05:14:56.548Z,41.4
2017-03-28T05:15:56.647Z,41.6
2017-03-28T05:16:56.350Z,41.5
2017-03-28T05:17:56.690Z,41.4
2017-03-28T05:18:56.409Z,40.99
2017-03-28T05:19:56.995Z,41.4
2017-03-28T05:20:56.453Z,41.4
2017-03-28T05:21:56.801Z,41.3
2017-03-28T05:22:56.518Z,41.5
2017-03-28T05:23:56.853Z,41.2
2017-03-28T05:24:56.819Z,41.3
2017-03-28T05:25:56.908Z,41.6
2017-03-28T05:26:56.624Z,41.5
2017-03-28T05:27:56.961Z,41.6
2017-03-28T05:28:56.991Z,41.5
2017-03-28T05:29:57.271Z,41.3
2017-03-28T05:30:57.039Z,41.3
2017-03-28T05:31:57.074Z,41.3
2017-03-28T05:32:57.122Z,41.3
2017-03-28T05:33:57.126Z,41.4
2017-03-28T05:34:57.406Z,41.3
2017-03-28T05:35:57.180Z,41.4
2017-03-28T05:36:57.208Z,41.3
2017-03-28T05:37:57.242Z,41.3
2017-03-28T05:38:57.260Z,41.4
2017-03-28T05:39:57.290Z,41.6
2017-03-28T05:40:57.317Z,41.3
2017-03-28T05:41:57.032Z,41.4
2017-03-28T05:42:57.378Z,41.69
2017-03-28T05:43:57.098Z,41.5
2017-03-28T05:44:57.428Z,40.92
2017-03-28T05:45:57.139Z,41.02
2017-03-28T05:46:57.484Z,40.92
2017-03-28T05:47:57.508Z,40.82
2017-03-28T05:48:57.537Z,41.02
2017-03-28T05:49:57.562Z,40.72
2017-03-28T05:50:57.591Z,40.63
2017-03-28T05:51:57.623Z,40.92
2017-03-28T05:52:57.645Z,40.63
2017-03-28T05:53:57.677Z,40.63
2017-03-28T05:54:57.699Z,40.92
2017-03-28T05:55:57.730Z,41.11
2017-03-28T05:56:57.751Z,41.02
2017-03-28T05:57:57.475Z,41.02
2017-03-28T05:58:57.816Z,40.63
2017-03-28T05:59:57.838Z,40.72
2017-03-28T06:00:57.867Z,40.94
2017-03-28T06:01:57.896Z,40.63
2017-03-28T06:02:57.919Z,40.72
2017-03-28T06:03:57.945Z,40.82
2017-03-28T06:04:57.662Z,40.72
2017-03-28T06:05:58.002Z,40.92
2017-03-28T06:06:58.041Z,41.5
2017-03-28T06:07:58.072Z,41.2
2017-03-28T06:08:57.773Z,41.4
2017-03-28T06:09:58.118Z,41.4
2017-03-28T06:10:58.137Z,41.33
2017-03-28T06:11:58.168Z,41.33
2017-03-28T06:12:58.234Z,41.71
2017-03-28T06:13:58.238Z,40.84
2017-03-28T06:14:58.249Z,40.94
2017-03-28T06:15:57.966Z,40.94
2017-03-28T06:16:57.990Z,40.84
2017-03-28T06:17:58.335Z,41.13
2017-03-28T06:18:58.053Z,40.84
2017-03-28T06:19:58.074Z,41.23
2017-03-28T06:20:58.414Z,41.13
2017-03-28T06:21:58.446Z,41.03
2017-03-28T06:22:58.470Z,41.13
2017-03-28T06:23:58.496Z,40.84
2017-03-28T06:24:58.525Z,40.94
2017-03-28T06:25:58.545Z,40.65
2017-03-28T06:26:58.573Z,40.55
2017-03-28T06:27:58.295Z,40.65
2017-03-28T06:28:58.327Z,40.75
2017-03-28T06:29:58.660Z,40.75
2017-03-28T06:30:58.688Z,40.65
2017-03-28T06:31:58.717Z,40.75
2017-03-28T06:32:58.747Z,40.26
2017-03-28T06:33:58.772Z,40.36
2017-03-28T06:34:58.488Z,40.07
2017-03-28T06:35:58.825Z,40.17
2017-03-28T06:36:58.538Z,40.17
2017-03-28T06:37:58.883Z,40.17
2017-03-28T06:38:58.919Z,39.87
2017-03-28T06:39:58.946Z,40.07
2017-03-28T06:40:58.965Z,40.26
2017-03-28T06:41:58.982Z,39.69
2017-03-28T06:42:59.021Z,39.97
2017-03-28T06:43:59.056Z,39.87
2017-03-28T06:44:58.760Z,39.87
2017-03-28T06:45:59.353Z,40.17
2017-03-28T06:46:59.126Z,40.17
2017-03-28T06:47:59.155Z,40.07
2017-03-28T06:48:59.187Z,40.26
2017-03-28T06:49:59.213Z,40.28
2017-03-28T06:50:59.494Z,39.87
2017-03-28T06:51:59.265Z,40.36
2017-03-28T06:52:59.297Z,39.87
2017-03-28T06:53:59.323Z,40.07
2017-03-28T06:54:59.348Z,40.07
2017-03-28T06:55:59.625Z,39.97
2017-03-28T06:56:59.089Z,40.17
2017-03-28T06:57:59.438Z,40.07
2017-03-28T06:58:59.459Z,40.17
2017-03-28T06:59:59.487Z,40.17
2017-03-28T07:00:59.762Z,40.26
2017-03-28T07:01:59.539Z,40.17
2017-03-28T07:02:59.573Z,40.45
2017-03-28T07:03:59.599Z,40.26
2017-03-28T07:04:59.624Z,40.17
2017-03-28T07:05:59.907Z,40.45
2017-03-28T07:06:59.689Z,40.26
2017-03-28T07:07:59.705Z,40.26
2017-03-28T07:08:59.731Z,40.26
2017-03-28T07:09:59.766Z,40.07
2017-03-28T07:11:00.040Z,40.17
2017-03-28T07:11:59.812Z,40.17
2017-03-28T07:12:59.533Z,40.26
2017-03-28T07:13:59.562Z,40.17
2017-03-28T07:14:59.897Z,40.55
2017-03-28T07:16:00.179Z,40.65
2017-03-28T07:16:59.644Z,40.65
2017-03-28T07:17:59.987Z,40.55
2017-03-28T07:19:00.049Z,40.55
2017-03-28T07:20:00.040Z,40.75
2017-03-28T07:21:00.003Z,40.55
2017-03-28T07:21:59.777Z,39.87
2017-03-28T07:23:00.121Z,40.36
2017-03-28T07:24:00.151Z,40.17
2017-03-28T07:25:00.179Z,40.07
2017-03-28T07:26:00.451Z,40.36
2017-03-28T07:26:59.920Z,40.07
2017-03-28T07:28:00.261Z,40.17
2017-03-28T07:29:00.294Z,40.45
2017-03-28T07:30:00.317Z,40.17
2017-03-28T07:31:00.342Z,39.78
2017-03-28T07:32:00.058Z,39.61
2017-03-28T07:33:00.398Z,38.46
2017-03-28T07:34:00.422Z,37.54
2017-03-28T07:35:00.142Z,36.2
2017-03-28T07:36:00.474Z,35.17
2017-03-28T07:37:00.506Z,34.22
2017-03-28T07:38:00.544Z,33.38
2017-03-28T07:39:00.573Z,32.71
2017-03-28T07:40:00.593Z,32.54
2017-03-28T07:41:00.622Z,31.48
2017-03-28T07:42:00.663Z,31.11
2017-03-28T07:43:00.679Z,30.83
2017-03-28T07:44:00.705Z,29.49
2017-03-28T07:45:00.429Z,29.1
2017-03-28T07:46:00.455Z,28.53
2017-03-28T07:47:00.794Z,28.63
2017-03-28T07:48:00.823Z,28.64
2017-03-28T07:49:00.869Z,27.87
2017-03-28T07:50:00.566Z,27.87
2017-03-28T07:51:00.910Z,27.87
2017-03-28T07:52:00.631Z,27.68
2017-03-28T07:53:00.964Z,27.97
2017-03-28T07:54:00.998Z,28.25
2017-03-28T07:55:01.040Z,28.43
2017-03-28T07:56:01.054Z,28.9
2017-03-28T07:57:01.086Z,29.38
2017-03-28T07:58:01.115Z,29.94
2017-03-28T07:59:01.146Z,30.51
2017-03-28T08:00:01.174Z,30.88
2017-03-28T08:01:00.886Z,30.98
2017-03-28T08:02:01.231Z,31.35
2017-03-28T08:03:01.260Z,32.13
2017-03-28T08:04:01.286Z,32.12
2017-03-28T08:05:01.312Z,32.31
2017-03-28T08:06:01.349Z,33.07
2017-03-28T08:07:01.378Z,33.17
2017-03-28T08:08:01.406Z,33.15
2017-03-28T08:09:01.123Z,33.34
2017-03-28T08:10:01.461Z,33.64
2017-03-28T08:11:01.493Z,34.02
2017-03-28T08:12:01.522Z,34.61
2017-03-28T08:13:01.556Z,34.11
2017-03-28T08:14:01.580Z,34.59
2017-03-28T08:15:01.625Z,34.39
2017-03-28T08:16:01.329Z,34.88
2017-03-28T08:17:01.916Z,35.27
2017-03-28T08:18:01.698Z,35.17
2017-03-28T08:19:01.725Z,35.25
2017-03-28T08:20:01.444Z,35.15
2017-03-28T08:21:01.781Z,35.25
2017-03-28T08:22:01.748Z,35.15
2017-03-28T08:23:01.837Z,35.15
2017-03-28T08:24:01.863Z,35.25
2017-03-28T08:25:01.895Z,36.12
2017-03-28T08:26:01.921Z,36.02
2017-03-28T08:27:02.205Z,35.73
2017-03-28T08:28:01.982Z,35.91
2017-03-28T08:29:01.696Z,36.02
2017-03-28T08:30:02.044Z,35.91
2017-03-28T08:31:02.069Z,35.91
2017-03-28T08:32:02.037Z,35.91
2017-03-28T08:33:01.814Z,36.2
2017-03-28T08:34:02.154Z,36.58
2017-03-28T08:35:02.179Z,36.4
2017-03-28T08:36:02.208Z,36.2
2017-03-28T08:37:02.489Z,36
2017-03-28T08:38:02.266Z,36.2
2017-03-28T08:39:02.295Z,36.47
2017-03-28T08:40:02.323Z,36.57
2017-03-28T08:41:02.352Z,36.66
2017-03-28T08:42:02.070Z,36.76
2017-03-28T08:43:02.406Z,36.76
2017-03-28T08:44:02.444Z,36.96
2017-03-28T08:45:02.482Z,36.96
2017-03-28T08:46:02.204Z,36.76
2017-03-28T08:47:02.522Z,36.66
2017-03-28T08:48:02.550Z,37.44
2017-03-28T08:49:02.579Z,37.54
2017-03-28T08:50:02.610Z,37.24
2017-03-28T08:51:02.636Z,37.15
2017-03-28T08:52:02.665Z,37.54
2017-03-28T08:53:02.691Z,37.73
2017-03-28T08:54:02.722Z,37.15
2017-03-28T08:55:02.750Z,37.54
2017-03-28T08:56:02.461Z,37.54
2017-03-28T08:57:02.806Z,37.63
2017-03-28T08:58:02.836Z,37.73
2017-03-28T08:59:02.864Z,37.82
2017-03-28T09:00:02.887Z,37.73
2017-03-28T09:01:02.926Z,37.82
2017-03-28T09:02:02.636Z,37.73
2017-03-28T09:03:02.976Z,37.54
2017-03-28T09:04:03.005Z,37.07
2017-03-28T09:05:03.035Z,36.49
2017-03-28T09:06:03.064Z,36.51
2017-03-28T09:07:02.776Z,35.93
2017-03-28T09:08:02.804Z,35.07
2017-03-28T09:09:03.147Z,35.19
2017-03-28T09:10:03.175Z,34.41
2017-03-28T09:11:02.895Z,34.33
2017-03-28T09:12:02.909Z,34.23
2017-03-28T09:13:03.260Z,33.47
2017-03-28T09:14:03.292Z,32.99
2017-03-28T09:15:03.317Z,32.99
2017-03-28T09:16:03.338Z,32.81
2017-03-28T09:17:03.369Z,32.71
2017-03-28T09:18:03.405Z,32.32
2017-03-28T09:19:03.432Z,32.71
2017-03-28T09:20:03.457Z,32.81
2017-03-28T09:21:03.490Z,32.71
2017-03-28T09:22:03.528Z,33.01
2017-03-28T09:23:03.549Z,33.28
2017-03-28T09:24:03.263Z,33.38
2017-03-28T09:25:03.297Z,33.56
2017-03-28T09:26:03.635Z,33.84
2017-03-28T09:27:03.351Z,34.14
2017-03-28T09:28:03.948Z,34.41
2017-03-28T09:29:03.729Z,34.41
2017-03-28T09:30:03.437Z,34.61
2017-03-28T09:31:03.779Z,34.99
2017-03-28T09:32:03.495Z,34.89
2017-03-28T09:33:04.086Z,34.59
2017-03-28T09:34:03.868Z,35.27
2017-03-28T09:35:03.893Z,35.07
2017-03-28T09:36:03.605Z,35.17
2017-03-28T09:37:03.950Z,35.07
2017-03-28T09:38:04.236Z,35.46
2017-03-28T09:39:04.010Z,35.36
2017-03-28T09:40:04.041Z,35.75
2017-03-28T09:41:04.094Z,36.22
2017-03-28T09:42:04.094Z,35.85
2017-03-28T09:43:04.375Z,35.93
2017-03-28T09:44:04.157Z,35.85
2017-03-28T09:45:04.180Z,35.83
2017-03-28T09:46:04.206Z,35.83
2017-03-28T09:47:04.242Z,35.73
2017-03-28T09:48:04.514Z,36.02
2017-03-28T09:49:04.299Z,36.12
2017-03-28T09:50:04.016Z,36.32
2017-03-28T09:51:04.353Z,36.51
2017-03-28T09:52:04.389Z,36.41
2017-03-28T09:53:04.109Z,36.02
2017-03-28T09:54:04.136Z,36.22
2017-03-28T09:55:04.157Z,36.6
2017-03-28T09:56:04.185Z,36.51
2017-03-28T09:57:04.217Z,36.51
2017-03-28T09:58:04.551Z,36.51
2017-03-28T09:59:04.271Z,36.6
2017-03-28T10:00:04.615Z,36.8
2017-03-28T10:01:04.329Z,36.8
2017-03-28T10:02:04.358Z,36.7
2017-03-28T10:03:04.703Z,36.51
2017-03-28T10:04:04.731Z,36.41
2017-03-28T10:05:04.444Z,36.8
2017-03-28T10:06:04.503Z,36.7
2017-03-28T10:07:04.834Z,36.99
2017-03-28T10:08:04.975Z,36.7
2017-03-28T10:09:04.866Z,37.28
2017-03-28T10:10:04.592Z,36.8
2017-03-28T10:11:04.928Z,36.6
2017-03-28T10:12:04.957Z,36.51
2017-03-28T10:13:04.990Z,36.7
2017-03-28T10:14:05.006Z,36.7
2017-03-28T10:15:05.043Z,36.51
2017-03-28T10:16:05.084Z,36.51
2017-03-28T10:17:05.100Z,36.7
2017-03-28T10:18:05.129Z,36.41
2017-03-28T10:19:05.160Z,36.51
2017-03-28T10:20:05.191Z,36.51
2017-03-28T10:21:05.216Z,36.8
2017-03-28T10:22:05.244Z,36.8
2017-03-28T10:23:05.273Z,36.51
2017-03-28T10:24:04.994Z,36.7
2017-03-28T10:25:05.340Z,36.41
2017-03-28T10:26:05.364Z,36.41
2017-03-28T10:27:05.395Z,36.99
2017-03-28T10:28:05.416Z,36.99
2017-03-28T10:29:05.450Z,37.38
2017-03-28T10:30:05.474Z,37.48
2017-03-28T10:31:05.552Z,37.4
2017-03-28T10:32:05.532Z,37.3
2017-03-28T10:33:05.258Z,37.77
2017-03-28T10:34:05.597Z,37.79
2017-03-28T10:35:05.311Z,37.67
2017-03-28T10:36:05.648Z,37.48
2017-03-28T10:37:05.684Z,37.48
2017-03-28T10:38:05.709Z,37.38
2017-03-28T10:39:05.738Z,37.57
2017-03-28T10:40:05.763Z,37.77
2017-03-28T10:41:05.799Z,37.67
2017-03-28T10:42:05.821Z,37.88
2017-03-28T10:43:05.860Z,37.77
2017-03-28T10:44:05.573Z,37.77
2017-03-28T10:45:05.598Z,37.87
2017-03-28T10:46:05.942Z,38.15
2017-03-28T10:47:05.976Z,38.06
2017-03-28T10:48:05.682Z,38.06
2017-03-28T10:49:06.029Z,37.77
2017-03-28T10:50:06.058Z,37.96
2017-03-28T10:51:06.102Z,37.96
2017-03-28T10:52:06.120Z,37.87
2017-03-28T10:53:05.828Z,38.06
2017-03-28T10:54:06.177Z,37.96
2017-03-28T10:55:06.203Z,37.96
2017-03-28T10:56:05.916Z,38.06
2017-03-28T10:57:06.262Z,38.35
2017-03-28T10:58:05.992Z,38.06
2017-03-28T10:59:06.011Z,38.45
2017-03-28T11:00:06.351Z,38.06
2017-03-28T11:01:06.382Z,38.45
2017-03-28T11:02:06.402Z,38.25
2017-03-28T11:03:06.443Z,38.25
2017-03-28T11:04:06.472Z,38.25
2017-03-28T11:05:06.185Z,38.35
2017-03-28T11:06:06.526Z,38.15
2017-03-28T11:07:06.558Z,38.54
2017-03-28T11:08:06.586Z,38.15
2017-03-28T11:09:06.864Z,38.45
2017-03-28T11:10:06.639Z,38.15
2017-03-28T11:11:06.362Z,38.25
2017-03-28T11:12:06.702Z,38.54
2017-03-28T11:13:06.411Z,38.45
2017-03-28T11:14:06.704Z,38.54
2017-03-28T11:15:06.789Z,38.45
2017-03-28T11:16:06.509Z,38.35
2017-03-28T11:17:06.846Z,38.25
2017-03-28T11:18:06.890Z,38.35
2017-03-28T11:19:07.154Z,38.54
2017-03-28T11:20:06.941Z,37.87
2017-03-28T11:21:06.970Z,38.15
2017-03-28T11:22:06.996Z,38.25
2017-03-28T11:23:07.031Z,37.96
2017-03-28T11:24:07.305Z,37.96
2017-03-28T11:25:07.084Z,38.35
2017-03-28T11:26:07.112Z,38.15
2017-03-28T11:27:07.143Z,38.25
2017-03-28T11:28:06.858Z,37.57
2017-03-28T11:29:07.456Z,38.27
2017-03-28T11:30:07.229Z,38.07
2017-03-28T11:31:06.954Z,38.07
2017-03-28T11:32:07.290Z,38.07
2017-03-28T11:33:07.319Z,37.88
2017-03-28T11:34:07.602Z,37.79
2017-03-28T11:35:07.380Z,37.88
2017-03-28T11:36:07.405Z,37.49
2017-03-28T11:37:07.441Z,37.49
2017-03-28T11:38:07.469Z,37.98
2017-03-28T11:39:07.195Z,37.49
2017-03-28T11:40:07.533Z,37.4
2017-03-28T11:41:07.594Z,37.4
2017-03-28T11:42:07.587Z,37.79
2017-03-28T11:43:07.626Z,37.21
2017-03-28T11:44:07.651Z,37.41
2017-03-28T11:45:07.675Z,36.93
2017-03-28T11:46:07.708Z,36.74
2017-03-28T11:47:07.732Z,36.93
2017-03-28T11:48:07.768Z,36.74
2017-03-28T11:49:07.794Z,36.44
2017-03-28T11:50:07.825Z,36.16
2017-03-28T11:51:07.848Z,36.44
2017-03-28T11:52:07.888Z,36.46
2017-03-28T11:53:07.909Z,36.46
2017-03-28T11:54:07.943Z,35.78
2017-03-28T11:55:07.971Z,36.1
2017-03-28T11:56:08.004Z,35.41
2017-03-28T11:57:08.036Z,35.33
2017-03-28T11:58:08.061Z,35.14
2017-03-28T11:59:07.775Z,35.05
2017-03-28T12:00:07.807Z,34.38
2017-03-28T12:01:08.152Z,34.67
2017-03-28T12:02:08.180Z,33.72
2017-03-28T12:03:08.212Z,34.01
2017-03-28T12:04:07.933Z,33.33
2017-03-28T12:05:08.273Z,33.06
2017-03-28T12:06:08.299Z,32.57
2017-03-28T12:07:08.336Z,32.78
2017-03-28T12:08:08.369Z,32.78
2017-03-28T12:09:08.397Z,32.39
2017-03-28T12:10:08.431Z,32.2
2017-03-28T12:11:08.463Z,31.92
2017-03-28T12:12:08.492Z,31.34
2017-03-28T12:13:08.520Z,31.45
2017-03-28T12:14:08.559Z,31.25
2017-03-28T12:15:08.587Z,30.96
2017-03-28T12:16:08.801Z,30.96
2017-03-28T12:17:08.337Z,30.58
2017-03-28T12:18:08.689Z,30.78
2017-03-28T12:19:08.713Z,30.51
2017-03-28T12:20:08.749Z,30.41
2017-03-28T12:21:08.776Z,30.02
2017-03-28T12:22:08.815Z,29.92
2017-03-28T12:23:08.851Z,29.15
2017-03-28T12:24:08.873Z,29.35
2017-03-28T12:25:08.910Z,29.44
2017-03-28T12:26:08.938Z,29.54
2017-03-28T12:27:08.976Z,28.88
2017-03-28T12:28:09.003Z,28.49
2017-03-28T12:29:09.032Z,28.68
2017-03-28T12:30:09.071Z,28.68
2017-03-28T12:31:09.107Z,28.11
2017-03-28T12:32:09.131Z,28.11
2017-03-28T12:33:09.168Z,28.3
2017-03-28T12:34:09.210Z,28.3
2017-03-28T12:35:09.487Z,28.03
2017-03-28T12:36:08.949Z,27.83
2017-03-28T12:37:09.299Z,27.83
2017-03-28T12:38:09.336Z,27.54
2017-03-28T12:39:09.365Z,27.64
2017-03-28T12:40:09.331Z,27.44
2017-03-28T12:41:09.426Z,27.54
2017-03-28T12:42:09.167Z,26.97
2017-03-28T12:43:09.500Z,26.87
2017-03-28T12:44:09.529Z,27.16
2017-03-28T12:45:09.810Z,26.87
2017-03-28T12:46:09.593Z,26.87
2017-03-28T12:47:09.311Z,26.59
2017-03-28T12:48:09.664Z,26.49
2017-03-28T12:49:09.696Z,26.39
2017-03-28T12:50:09.990Z,26.29
2017-03-28T12:51:09.763Z,26.29
2017-03-28T12:52:09.794Z,26.29
2017-03-28T12:53:09.828Z,26.1
2017-03-28T12:54:09.888Z,26
2017-03-28T12:55:10.142Z,26
2017-03-28T12:56:09.935Z,26